Time;durP1;ratioP1;P1;durP2;ratioP2;P2;SDS_P1;SDS_P2;PMS_P1;PMS_P2;Temp;Humidity;BMP_temperature;BMP_pressure;BME280_temperature;BME280_humidity;BME280_pressure;Samples;Min_cycle;Max_cycle;Signal;HPM_P1;HPM_P2
2021/06/06 00:00:59;;;;;;;7.35;5.80;;;;;;;15.64;100.00;97219.50;5032082;28;20183;-61
2021/06/06 00:03:36;;;;;;;9.45;5.55;;;;;;;15.57;100.00;97213.59;5031514;28;20206;-61
2021/06/06 00:06:17;;;;;;;7.35;5.35;;;;;;;15.48;100.00;97215.06;5032647;28;20170;-61
2021/06/06 00:08:43;;;;;;;8.57;5.05;;;;;;;15.48;100.00;97215.06;5032376;28;20190;-61
2021/06/06 00:11:21;;;;;;;7.60;5.20;;;;;;;15.60;100.00;97213.13;5032227;28;20194;-61
2021/06/06 00:13:48;;;;;;;5.72;4.60;;;;;;;15.54;100.00;97214.09;5032219;28;20189;-61
2021/06/06 00:16:18;;;;;;;5.78;5.10;;;;;;;15.53;100.00;97207.22;5031814;28;20191;-61
2021/06/06 00:18:44;;;;;;;5.38;4.63;;;;;;;15.56;100.00;97209.34;5031517;28;20203;-61
2021/06/06 00:21:10;;;;;;;5.70;4.70;;;;;;;15.61;100.00;97209.41;5032158;28;20186;-61
2021/06/06 00:23:36;;;;;;;6.67;4.93;;;;;;;15.57;100.00;97198.53;5031721;28;20931;-61
2021/06/06 00:26:05;;;;;;;6.45;4.97;;;;;;;15.60;100.00;97199.91;5014657;28;20190;-61
2021/06/06 00:28:30;;;;;;;6.63;5.30;;;;;;;15.66;100.00;97204.19;5031454;28;20178;-61
2021/06/06 00:30:57;;;;;;;7.70;4.80;;;;;;;15.65;100.00;97210.53;5032487;28;20237;-61
2021/06/06 00:33:23;;;;;;;6.33;4.43;;;;;;;15.59;100.00;97207.03;5030934;28;20265;-61
2021/06/06 00:35:48;;;;;;;6.13;4.67;;;;;;;15.47;100.00;97206.31;5031936;28;20283;-61
2021/06/06 00:38:14;;;;;;;6.57;4.65;;;;;;;15.42;100.00;97202.81;5032086;28;20174;-61
2021/06/06 00:40:39;;;;;;;5.60;4.17;;;;;;;15.57;100.00;97203.03;5031528;28;20697;-61
2021/06/06 00:43:06;;;;;;;5.72;4.32;;;;;;;15.49;100.00;97198.94;5031903;28;20214;-61
2021/06/06 00:45:33;;;;;;;5.30;4.27;;;;;;;15.49;100.00;97206.09;5031286;28;20261;-61
2021/06/06 00:47:59;;;;;;;6.00;4.80;;;;;;;15.48;100.00;97213.22;5032214;28;20202;-61
2021/06/06 00:50:32;;;;;;;5.17;4.63;;;;;;;15.49;100.00;97211.38;5031322;28;20206;-61
2021/06/06 00:53:03;;;;;;;7.57;4.60;;;;;;;15.55;100.00;97208.56;5031841;28;20631;-61
2021/06/06 00:55:28;;;;;;;4.85;4.15;;;;;;;15.53;100.00;97209.84;5030886;28;20604;-61
2021/06/06 00:57:55;;;;;;;5.67;4.43;;;;;;;15.56;100.00;97210.16;5031994;28;20183;-61
2021/06/06 01:00:28;;;;;;;6.47;4.53;;;;;;;15.60;100.00;97210.47;5013251;28;20182;-61
2021/06/06 01:02:54;;;;;;;6.75;4.45;;;;;;;15.55;100.00;97205.91;5031996;28;20194;-61
2021/06/06 01:05:35;;;;;;;4.73;4.10;;;;;;;15.55;100.00;97207.78;5030808;28;20576;-61
2021/06/06 01:08:04;;;;;;;4.88;4.30;;;;;;;15.55;100.00;97210.41;5031785;28;20163;-61
2021/06/06 01:10:30;;;;;;;5.72;3.72;;;;;;;15.46;100.00;97212.66;5031018;28;20213;-61
2021/06/06 01:13:04;;;;;;;4.40;4.00;;;;;;;15.41;100.00;97209.94;5031884;28;20187;-61
2021/06/06 01:15:34;;;;;;;7.10;4.03;;;;;;;15.52;100.00;97206.41;5030925;28;20183;-61
2021/06/06 01:18:15;;;;;;;5.00;4.13;;;;;;;15.53;100.00;97205.38;5031642;28;20177;-61
2021/06/06 01:20:59;;;;;;;4.80;4.30;;;;;;;15.57;100.00;97206.47;5030931;28;20259;-61
2021/06/06 01:23:33;;;;;;;5.37;4.27;;;;;;;15.49;100.00;97200.81;5030751;28;20520;-61
2021/06/06 01:26:28;;;;;;;5.43;4.40;;;;;;;15.39;100.00;97202.28;5013906;28;20190;-61
2021/06/06 01:29:34;;;;;;;5.13;4.07;;;;;;;15.37;100.00;97203.56;5031381;28;20185;-61
2021/06/06 01:32:15;;;;;;;4.75;4.07;;;;;;;15.47;100.00;97201.03;5034695;28;20241;-61
2021/06/06 01:34:43;;;;;;;5.83;4.13;;;;;;;15.35;100.00;97198.53;5034242;28;20234;-59
2021/06/06 01:37:12;;;;;;;4.53;3.67;;;;;;;15.40;100.00;97203.06;5035612;28;20540;-60
2021/06/06 01:39:51;;;;;;;7.30;4.30;;;;;;;15.34;100.00;97191.66;5034550;28;20228;-60
2021/06/06 01:42:28;;;;;;;4.60;4.17;;;;;;;15.34;100.00;97196.13;5017308;28;20183;-60
2021/06/06 01:44:58;;;;;;;5.03;4.53;;;;;;;15.40;100.00;97187.22;5017884;28;20270;-60
2021/06/06 01:47:27;;;;;;;3.83;3.50;;;;;;;15.33;100.00;97183.97;5034440;28;20237;-60
2021/06/06 01:50:03;;;;;;;4.63;4.07;;;;;;;15.36;100.00;97188.75;5035462;28;20171;-60
2021/06/06 01:52:33;;;;;;;4.07;3.47;;;;;;;15.38;100.00;97186.66;5034497;28;20559;-60
2021/06/06 01:55:00;;;;;;;4.20;3.80;;;;;;;15.39;100.00;97188.25;5035132;28;20211;-60
2021/06/06 01:57:27;;;;;;;4.23;3.83;;;;;;;15.44;100.00;97183.03;5034417;28;20204;-60
2021/06/06 01:59:57;;;;;;;6.83;3.67;;;;;;;15.28;100.00;97184.69;5034900;28;20187;-60
2021/06/06 02:02:22;;;;;;;3.97;3.47;;;;;;;15.37;100.00;97185.09;5034053;28;20186;-60
2021/06/06 02:04:48;;;;;;;3.90;3.60;;;;;;;15.33;100.00;97183.97;5035015;28;20650;-60
2021/06/06 02:07:30;;;;;;;4.50;3.63;;;;;;;15.30;100.00;97181.81;5034851;28;20266;-60
2021/06/06 02:10:20;;;;;;;3.67;3.30;;;;;;;15.35;100.00;97176.59;5035162;28;20182;-61
2021/06/06 02:12:50;;;;;;;3.72;3.40;;;;;;;15.31;100.00;97183.44;5035284;28;20167;-60
2021/06/06 02:15:25;;;;;;;6.83;3.77;;;;;;;15.34;100.00;97183.72;5034418;28;20166;-60
2021/06/06 02:17:56;;;;;;;3.50;3.20;;;;;;;15.29;100.00;97182.88;5034513;28;20249;-60
2021/06/06 02:20:25;;;;;;;4.03;3.63;;;;;;;15.37;100.00;97180.59;5033952;28;20174;-60
2021/06/06 02:22:52;;;;;;;3.60;3.27;;;;;;;15.29;100.00;97180.22;5034648;28;20193;-60
2021/06/06 02:25:18;;;;;;;3.88;3.15;;;;;;;15.38;100.00;97179.53;5033550;28;20183;-60
2021/06/06 02:27:51;;;;;;;4.75;3.90;;;;;;;15.40;100.00;97187.22;5034907;28;20210;-60
2021/06/06 02:30:27;;;;;;;4.23;3.70;;;;;;;15.36;100.00;97184.28;5016337;28;20540;-60
2021/06/06 02:33:09;;;;;;;5.63;3.30;;;;;;;15.29;100.00;97185.50;5034576;28;20230;-60
2021/06/06 02:35:55;;;;;;;4.90;3.40;;;;;;;15.19;100.00;97183.56;5033105;28;20742;-61
2021/06/06 02:38:55;;;;;;;5.07;3.60;;;;;;;15.32;100.00;97187.66;5033814;28;20167;-60
2021/06/06 02:41:38;;;;;;;4.50;3.58;;;;;;;15.24;100.00;97180.97;5022684;28;20244;-60
2021/06/06 02:44:12;;;;;;;4.13;3.72;;;;;;;15.28;100.00;97173.34;5033715;28;20167;-60
2021/06/06 02:46:40;;;;;;;4.95;3.33;;;;;;;15.38;100.00;97179.53;5033482;28;20174;-60
2021/06/06 02:49:11;;;;;;;4.50;3.67;;;;;;;15.31;100.00;97180.78;5034395;28;20187;-60
2021/06/06 02:51:42;;;;;;;4.50;3.70;;;;;;;15.34;100.00;97175.78;5033557;28;20196;-60
2021/06/06 02:54:21;;;;;;;4.10;3.70;;;;;;;15.39;100.00;97173.22;5016631;28;20174;-61
2021/06/06 02:56:51;;;;;;;5.70;3.37;;;;;;;15.33;100.00;97182.13;5033851;28;20182;-60
2021/06/06 02:59:32;;;;;;;4.65;3.75;;;;;;;15.34;100.00;97177.63;5033188;28;20184;-61
2021/06/06 03:02:01;;;;;;;6.07;3.47;;;;;;;15.24;100.00;97173.03;5034096;28;20167;-61
2021/06/06 03:04:30;;;;;;;4.17;3.40;;;;;;;15.21;100.00;97183.31;5033430;28;20194;-61
2021/06/06 03:07:08;;;;;;;4.87;3.70;;;;;;;15.33;100.00;97178.69;5033742;28;20655;-61
2021/06/06 03:09:33;;;;;;;4.63;3.70;;;;;;;15.30;100.00;97174.69;5032970;28;20171;-61
2021/06/06 03:12:05;;;;;;;4.90;3.80;;;;;;;15.30;100.00;97176.53;5033893;28;20247;-61
2021/06/06 03:14:33;;;;;;;6.97;3.73;;;;;;;15.35;100.00;97177.41;5033158;28;20523;-61
2021/06/06 03:17:04;;;;;;;3.60;3.30;;;;;;;15.31;100.00;97178.94;5033973;28;20179;-61
2021/06/06 03:19:38;;;;;;;5.80;3.40;;;;;;;15.12;100.00;97180.28;5033081;28;20254;-59
2021/06/06 03:22:07;;;;;;;4.57;3.38;;;;;;;15.10;100.00;97178.94;5033741;28;20539;-59
2021/06/06 03:24:41;;;;;;;3.97;3.50;;;;;;;14.95;100.00;97164.50;5033023;28;20217;-59
2021/06/06 03:27:09;;;;;;;3.93;3.40;;;;;;;15.02;100.00;97169.59;5033802;28;20213;-62
2021/06/06 03:29:50;;;;;;;4.67;3.63;;;;;;;15.09;100.00;97162.31;5033239;28;20369;-61
2021/06/06 03:32:19;;;;;;;5.97;4.40;;;;;;;15.05;100.00;97169.09;5032784;28;20665;-61
2021/06/06 03:34:45;;;;;;;6.57;3.77;;;;;;;14.85;100.00;97166.22;5032921;28;20222;-61
2021/06/06 03:37:10;;;;;;;5.43;3.93;;;;;;;14.83;100.00;97163.81;5033242;28;20177;-61
2021/06/06 03:39:35;;;;;;;6.53;4.00;;;;;;;14.84;100.00;97164.59;5032684;28;20201;-61
2021/06/06 03:42:01;;;;;;;5.43;4.10;;;;;;;14.82;100.00;97164.84;5015559;28;20218;-61
2021/06/06 03:44:28;;;;;;;8.10;4.70;;;;;;;14.90;100.00;97161.78;5032850;28;20201;-61
2021/06/06 03:46:56;;;;;;;5.93;4.50;;;;;;;14.82;100.00;97164.06;5033199;28;20584;-62
2021/06/06 03:49:22;;;;;;;5.77;4.30;;;;;;;14.73;100.00;97168.94;5032104;28;20269;-61
2021/06/06 03:51:48;;;;;;;5.17;4.33;;;;;;;14.85;100.00;97171.50;5032858;28;20547;-61
2021/06/06 03:54:17;;;;;;;5.67;4.80;;;;;;;14.74;100.00;97161.84;5032748;28;20179;-61
2021/06/06 03:56:45;;;;;;;7.73;4.93;;;;;;;14.75;100.00;97168.72;5032744;28;20214;-61
2021/06/06 03:59:12;;;;;;;9.10;4.80;;;;;;;14.78;100.00;97162.94;5032851;28;20631;-61
2021/06/06 04:01:39;;;;;;;6.53;5.00;;;;;;;14.69;100.00;97173.13;5031978;28;20206;-61
2021/06/06 04:04:04;;;;;;;7.17;5.00;;;;;;;14.66;100.00;97164.88;5032994;28;20203;-61
2021/06/06 04:06:30;;;;;;;6.20;4.70;;;;;;;14.71;100.00;97163.09;5031893;28;20229;-61
2021/06/06 04:08:55;;;;;;;8.40;5.07;;;;;;;14.67;100.00;97156.72;5032678;28;20186;-61
2021/06/06 04:11:21;;;;;;;5.80;4.53;;;;;;;14.63;100.00;97168.81;5032008;28;20238;-61
2021/06/06 04:13:46;;;;;;;6.23;4.77;;;;;;;14.72;100.00;97161.28;5032820;28;20183;-62
2021/06/06 04:16:12;;;;;;;5.13;4.30;;;;;;;14.59;100.00;97159.00;5032516;28;20201;-61
2021/06/06 04:18:38;;;;;;;9.70;5.07;;;;;;;14.63;100.00;97154.81;5031690;28;20269;-61
2021/06/06 04:21:07;;;;;;;11.37;4.83;;;;;;;14.66;100.00;97156.97;5032985;28;20209;-61
2021/06/06 04:23:33;;;;;;;6.80;4.70;;;;;;;14.64;100.00;97161.69;5031606;28;20535;-61
2021/06/06 04:25:59;;;;;;;6.63;4.20;;;;;;;14.63;100.00;97152.97;5015014;28;20178;-61
2021/06/06 04:28:25;;;;;;;10.37;4.60;;;;;;;14.70;100.00;97158.91;5031760;28;20178;-61
2021/06/06 04:30:52;;;;;;;6.33;4.33;;;;;;;14.58;100.00;97158.19;5032012;28;20198;-61
2021/06/06 04:33:18;;;;;;;10.33;5.00;;;;;;;14.60;100.00;97156.09;5031176;28;20230;-61
2021/06/06 04:35:45;;;;;;;10.03;5.10;;;;;;;14.60;100.00;97150.03;5031954;28;20185;-61
2021/06/06 04:38:14;;;;;;;9.37;4.63;;;;;;;14.67;100.00;97153.28;5032331;28;20514;-61
2021/06/06 04:40:40;;;;;;;8.13;5.13;;;;;;;14.63;100.00;97152.19;5031830;28;20206;-61
2021/06/06 04:43:07;;;;;;;13.03;5.60;;;;;;;14.69;100.00;97164.41;5032031;28;20644;-61
2021/06/06 04:45:32;;;;;;;11.30;5.57;;;;;;;14.64;100.00;97151.94;5031419;28;20183;-61
2021/06/06 04:48:18;;;;;;;10.37;5.40;;;;;;;14.54;100.00;97167.63;5031990;28;20252;-61
2021/06/06 04:50:45;;;;;;;9.80;5.17;;;;;;;14.60;100.00;97160.59;5032086;28;20202;-61
2021/06/06 04:53:11;;;;;;;11.43;5.30;;;;;;;14.61;100.00;97162.16;5032150;28;20174;-62
2021/06/06 04:55:36;;;;;;;8.63;5.53;;;;;;;14.62;100.00;97154.03;5031166;28;20193;-61
2021/06/06 04:58:02;;;;;;;9.70;5.00;;;;;;;14.64;100.00;97157.22;5032043;28;20174;-61
2021/06/06 05:00:30;;;;;;;7.53;4.73;;;;;;;14.60;100.00;97166.66;5031108;28;20194;-61
2021/06/06 05:02:55;;;;;;;7.53;4.93;;;;;;;14.69;100.00;97153.84;5031698;28;20601;-61
2021/06/06 05:05:22;;;;;;;6.67;4.60;;;;;;;14.77;100.00;97151.59;5030446;28;20206;-61
2021/06/06 05:08:00;;;;;;;5.37;4.17;;;;;;;14.65;100.00;97158.03;5031728;28;20258;-61
2021/06/06 05:10:27;;;;;;;5.77;4.17;;;;;;;14.64;100.00;97154.59;5031068;28;20189;-61
2021/06/06 05:12:53;;;;;;;6.30;4.57;;;;;;;14.68;100.00;97158.34;5031477;28;20265;-62
2021/06/06 05:15:20;;;;;;;7.43;4.83;;;;;;;14.62;100.00;97154.03;5030639;28;20703;-61
2021/06/06 05:17:45;;;;;;;10.80;5.37;;;;;;;14.48;100.00;97153.59;5031742;28;20265;-61
2021/06/06 05:20:14;;;;;;;8.70;4.93;;;;;;;14.54;100.00;97168.41;5031819;28;20273;-61
2021/06/06 05:22:39;;;;;;;9.60;5.23;;;;;;;14.50;100.00;97164.66;5031133;28;20178;-61
2021/06/06 05:25:06;;;;;;;8.13;5.33;;;;;;;14.37;100.00;97159.75;5031669;28;20175;-61
2021/06/06 05:27:32;;;;;;;7.87;5.47;;;;;;;14.43;100.00;97160.63;5030781;28;20175;-61
2021/06/06 05:29:57;;;;;;;9.67;5.93;;;;;;;14.26;100.00;97165.88;5031263;28;20182;-61
2021/06/06 05:32:23;;;;;;;10.47;5.43;;;;;;;14.11;100.00;97158.50;5030636;28;20214;-61
2021/06/06 05:34:49;;;;;;;8.30;5.07;;;;;;;14.19;100.00;97169.69;5031126;28;20236;-62
2021/06/06 05:37:14;;;;;;;8.83;5.77;;;;;;;14.23;100.00;97165.53;5031922;28;20182;-62
2021/06/06 05:39:41;;;;;;;8.30;5.33;;;;;;;14.22;100.00;97171.84;5030790;28;20193;-61
2021/06/06 05:42:08;;;;;;;11.20;6.23;;;;;;;14.24;100.00;97173.22;5031547;28;20186;-61
2021/06/06 05:44:34;;;;;;;6.53;5.50;;;;;;;14.22;100.00;97172.66;5012623;28;20570;-61
2021/06/06 05:47:00;;;;;;;8.47;5.50;;;;;;;14.29;100.00;97181.19;5031241;28;20174;-62
2021/06/06 05:49:25;;;;;;;9.03;6.37;;;;;;;14.24;100.00;97170.56;5012985;28;20186;-62
2021/06/06 05:51:51;;;;;;;9.10;5.77;;;;;;;14.31;100.00;97178.34;5031390;28;20199;-61
2021/06/06 05:54:17;;;;;;;10.40;6.00;;;;;;;14.14;100.00;97178.34;5030930;28;20183;-61
2021/06/06 05:56:45;;;;;;;11.60;6.87;;;;;;;14.10;100.00;97183.25;5013103;28;20628;-63
2021/06/06 05:59:11;;;;;;;10.33;6.60;;;;;;;14.20;100.00;97173.94;5031239;28;20195;-61
2021/06/06 06:01:36;;;;;;;11.37;6.63;;;;;;;14.24;100.00;97173.22;5030576;28;20187;-61
2021/06/06 06:04:02;;;;;;;9.97;7.00;;;;;;;14.21;100.00;97178.19;5031502;28;20512;-62
2021/06/06 06:06:28;;;;;;;11.20;6.40;;;;;;;14.29;100.00;97175.13;5030227;28;20167;-62
2021/06/06 06:08:54;;;;;;;13.87;7.10;;;;;;;14.23;100.00;97176.09;5031105;28;20186;-62
2021/06/06 06:11:21;;;;;;;8.97;6.23;;;;;;;14.26;100.00;97179.06;5030742;28;20207;-62
2021/06/06 06:13:47;;;;;;;9.13;5.97;;;;;;;14.31;100.00;97179.13;5031277;28;20636;-62
2021/06/06 06:16:15;;;;;;;8.67;5.30;;;;;;;14.28;100.00;97178.78;5030649;28;20187;-62
2021/06/06 06:18:40;;;;;;;9.27;5.77;;;;;;;14.32;100.00;97172.03;5015794;28;20854;-61
2021/06/06 06:21:11;;;;;;;6.93;5.70;;;;;;;14.18;100.00;97174.16;5016438;28;20179;-61
2021/06/06 06:23:36;;;;;;;8.10;5.67;;;;;;;14.28;100.00;97178.78;5033701;28;20625;-61
2021/06/06 06:26:02;;;;;;;8.50;6.10;;;;;;;14.32;100.00;97175.44;5034046;28;20274;-61
2021/06/06 06:28:28;;;;;;;9.73;5.63;;;;;;;14.48;100.00;97182.59;5015464;28;20175;-61
2021/06/06 06:30:53;;;;;;;9.90;5.77;;;;;;;14.30;100.00;97179.38;5033992;28;20597;-61
2021/06/06 06:33:19;;;;;;;8.33;5.77;;;;;;;14.28;100.00;97179.59;5033986;28;20617;-61
2021/06/06 06:35:44;;;;;;;11.07;6.47;;;;;;;14.22;100.00;97183.19;5033057;28;20182;-61
2021/06/06 06:38:10;;;;;;;7.10;6.07;;;;;;;14.12;100.00;97186.47;5034823;28;20186;-61
2021/06/06 06:40:36;;;;;;;10.23;6.57;;;;;;;14.18;100.00;97189.19;5033676;28;20186;-62
2021/06/06 06:43:03;;;;;;;10.20;6.57;;;;;;;14.09;100.00;97189.59;5016593;28;20712;-62
2021/06/06 06:45:33;;;;;;;9.33;6.43;;;;;;;14.19;100.00;97190.78;5033855;28;20566;-62
2021/06/06 06:48:08;;;;;;;10.00;6.17;;;;;;;14.15;100.00;97198.38;5034671;28;20269;-61
2021/06/06 06:50:34;;;;;;;8.97;6.20;;;;;;;14.12;100.00;97197.00;5033410;28;20166;-61
2021/06/06 06:53:00;;;;;;;10.10;6.37;;;;;;;14.04;100.00;97197.38;5034637;28;20183;-62
2021/06/06 06:55:27;;;;;;;9.93;6.87;;;;;;;14.05;100.00;97191.09;5033173;28;20183;-61
2021/06/06 06:57:55;;;;;;;9.47;6.93;;;;;;;14.08;100.00;97197.72;5033572;28;20218;-61
2021/06/06 07:00:26;;;;;;;9.83;6.50;;;;;;;14.16;100.00;97186.78;5033271;28;20663;-61
2021/06/06 07:02:52;;;;;;;13.37;7.77;;;;;;;14.11;100.00;97186.69;5034073;28;20218;-61
2021/06/06 07:05:18;;;;;;;7.90;6.30;;;;;;;14.16;100.00;97199.97;5016093;28;20217;-61
2021/06/06 07:07:43;;;;;;;10.60;6.80;;;;;;;14.16;100.00;97192.06;5033164;28;20233;-61
2021/06/06 07:10:13;;;;;;;8.97;6.17;;;;;;;14.18;100.00;97195.25;5033778;28;20171;-61
2021/06/06 07:12:38;;;;;;;8.60;6.43;;;;;;;14.20;100.00;97195.03;5015306;28;20217;-61
2021/06/06 07:15:09;;;;;;;10.20;7.20;;;;;;;14.19;100.00;97188.16;5033581;28;20174;-60
2021/06/06 07:17:34;;;;;;;8.57;7.07;;;;;;;14.21;100.00;97188.72;5015094;28;20187;-61
2021/06/06 07:20:02;;;;;;;8.13;6.40;;;;;;;14.18;100.00;97190.00;5033734;28;20186;-60
2021/06/06 07:22:27;;;;;;;9.07;6.60;;;;;;;14.19;100.00;97194.22;5014982;28;20193;-60
2021/06/06 07:24:52;;;;;;;8.43;6.37;;;;;;;14.24;100.00;97186.41;5033137;28;20566;-60
2021/06/06 07:27:18;;;;;;;9.47;7.03;;;;;;;14.31;100.00;97189.69;5033259;28;20189;-60
2021/06/06 07:29:45;;;;;;;9.07;6.90;;;;;;;14.29;100.00;97198.84;5032266;28;20183;-60
2021/06/06 07:32:11;;;;;;;9.77;6.80;;;;;;;14.18;100.00;97199.72;5033406;28;20213;-60
2021/06/06 07:34:37;;;;;;;9.57;6.60;;;;;;;14.33;100.00;97202.59;5031896;28;20230;-60
2021/06/06 07:37:05;;;;;;;11.70;7.37;;;;;;;14.24;100.00;97196.13;5036440;28;20182;-60
2021/06/06 07:39:31;;;;;;;8.27;6.43;;;;;;;14.28;100.00;97195.41;5051275;28;20186;-61
2021/06/06 07:41:58;;;;;;;9.77;6.37;;;;;;;14.35;100.00;97201.34;5052882;28;20213;-60
2021/06/06 07:44:25;;;;;;;7.70;6.50;;;;;;;14.33;100.00;97194.69;5033852;28;20193;-60
2021/06/06 07:46:52;;;;;;;8.47;6.53;;;;;;;14.41;100.00;97203.06;5052689;28;20201;-60
2021/06/06 07:49:18;;;;;;;11.60;6.73;;;;;;;14.43;100.00;97202.81;5052486;28;20174;-60
2021/06/06 07:51:44;;;;;;;13.57;6.77;;;;;;;14.46;100.00;97200.50;5051785;28;20198;-60
2021/06/06 07:54:10;;;;;;;9.70;6.57;;;;;;;14.38;100.00;97197.44;5052577;28;20657;-62
2021/06/06 07:56:35;;;;;;;12.47;7.17;;;;;;;14.21;100.00;97196.63;5051087;28;20185;-60
2021/06/06 07:59:01;;;;;;;12.40;7.23;;;;;;;14.22;100.00;97199.00;5032917;28;20603;-61
2021/06/06 08:01:26;;;;;;;10.73;6.80;;;;;;;14.21;100.00;97202.69;5031637;28;20183;-61
2021/06/06 08:03:52;;;;;;;12.77;8.00;;;;;;;14.24;100.00;97198.78;5032598;28;20186;-61
2021/06/06 08:06:20;;;;;;;15.77;7.40;;;;;;;14.40;100.00;97206.72;5032025;28;20273;-61
2021/06/06 08:08:45;;;;;;;14.83;7.60;;;;;;;14.34;100.00;97201.56;5032047;28;20233;-61
2021/06/06 08:11:12;;;;;;;9.67;7.30;;;;;;;14.44;100.00;97201.75;5032401;28;20210;-61
2021/06/06 08:13:38;;;;;;;13.37;7.03;;;;;;;14.32;100.00;97204.44;5031750;28;20405;-60
2021/06/06 08:16:05;;;;;;;16.33;8.63;;;;;;;14.30;100.00;97206.53;5032475;28;20233;-61
2021/06/06 08:18:35;;;;;;;12.20;7.73;;;;;;;14.27;100.00;97196.44;5031386;28;20175;-61
2021/06/06 08:21:17;;;;;;;13.00;8.33;;;;;;;14.29;100.00;97202.28;5032611;28;20181;-61
2021/06/06 08:23:44;;;;;;;13.03;7.43;;;;;;;14.36;100.00;97202.94;5031943;28;20201;-61
2021/06/06 08:26:10;;;;;;;10.23;7.73;;;;;;;14.23;100.00;97191.91;5032109;28;20182;-61
2021/06/06 08:28:36;;;;;;;14.57;8.37;;;;;;;14.27;100.00;97198.28;5031522;28;20274;-61
2021/06/06 08:31:12;;;;;;;14.63;8.47;;;;;;;14.32;100.00;97191.25;5031761;28;20297;-61
2021/06/06 08:33:39;;;;;;;12.90;7.63;;;;;;;14.46;100.00;97194.41;5030977;28;20697;-61
2021/06/06 08:36:13;;;;;;;11.60;7.90;;;;;;;14.39;100.00;97196.41;5031880;28;20179;-61
2021/06/06 08:38:38;;;;;;;12.03;7.43;;;;;;;14.32;100.00;97183.34;5030197;28;20178;-61
2021/06/06 08:41:14;;;;;;;13.57;8.57;;;;;;;14.38;100.00;97189.53;5031231;28;20189;-61
2021/06/06 08:43:46;;;;;;;12.67;8.30;;;;;;;14.41;100.00;97191.69;5031314;28;20170;-61
2021/06/06 08:46:13;;;;;;;12.77;7.80;;;;;;;14.38;100.00;97195.59;5031771;28;20178;-61
2021/06/06 08:48:39;;;;;;;12.97;7.17;;;;;;;14.41;100.00;97194.34;5030902;28;20178;-61
2021/06/06 08:51:28;;;;;;;17.23;9.10;;;;;;;14.42;100.00;97204.66;5031933;28;20210;-61
2021/06/06 08:54:23;;;;;;;18.83;9.67;;;;;;;14.53;100.00;97195.06;5032038;28;20178;-61
2021/06/06 08:56:58;;;;;;;17.67;8.50;;;;;;;14.59;100.00;97201.22;4997558;28;20190;-61
2021/06/06 08:59:32;;;;;;;14.03;8.40;;;;;;;14.47;100.00;97190.75;5031361;28;20301;-61
2021/06/06 09:02:00;;;;;;;14.90;8.73;;;;;;;14.52;100.00;97202.16;5032172;28;20166;-61
2021/06/06 09:04:29;;;;;;;13.43;8.17;;;;;;;14.55;100.00;97200.88;5030599;28;20245;-61
2021/06/06 09:07:21;;;;;;;15.57;8.70;;;;;;;14.42;100.00;97196.75;5029910;28;20644;-61
2021/06/06 09:09:50;;;;;;;13.63;8.83;;;;;;;14.44;100.00;97196.47;5016837;28;20643;-60
2021/06/06 09:12:19;;;;;;;18.53;8.33;;;;;;;14.51;100.00;97195.28;5031772;28;20190;-61
2021/06/06 09:14:46;;;;;;;14.93;9.07;;;;;;;14.50;100.00;97204.22;5030591;28;20175;-61
2021/06/06 09:17:17;;;;;;;14.67;8.90;;;;;;;14.47;100.00;97201.28;5031468;28;20210;-61
2021/06/06 09:19:49;;;;;;;14.63;8.23;;;;;;;14.55;100.00;97206.94;5030867;28;20703;-61
2021/06/06 09:22:37;;;;;;;12.97;8.13;;;;;;;14.60;100.00;97205.44;5030490;28;20167;-61
2021/06/06 09:25:18;;;;;;;16.57;9.17;;;;;;;14.64;100.00;97194.16;5016078;28;20273;-61
2021/06/06 09:27:44;;;;;;;14.20;8.97;;;;;;;14.65;100.00;97206.31;5028904;28;20356;-61
2021/06/06 09:30:16;;;;;;;14.83;9.43;;;;;;;14.67;100.00;97208.69;5030794;28;20658;-61
2021/06/06 09:32:42;;;;;;;13.97;8.57;;;;;;;14.76;100.00;97208.06;5028382;28;20218;-60
2021/06/06 09:35:25;;;;;;;13.80;8.60;;;;;;;14.96;100.00;97205.69;5030515;28;20203;-61
2021/06/06 09:38:21;;;;;;;16.57;9.47;;;;;;;14.85;100.00;97200.53;5029859;28;20194;-60
2021/06/06 09:40:50;;;;;;;20.13;9.30;;;;;;;14.95;100.00;97200.66;5004516;28;20201;-62
2021/06/06 09:43:29;;;;;;;15.43;8.87;;;;;;;14.84;100.00;97207.63;5031392;28;20201;-61
2021/06/06 09:46:15;;;;;;;19.57;9.73;;;;;;;14.79;100.00;97204.13;5016890;28;20178;-60
2021/06/06 09:48:43;;;;;;;17.23;8.73;;;;;;;14.83;100.00;97213.94;5030109;28;20237;-61
2021/06/06 09:51:28;;;;;;;14.50;8.83;;;;;;;14.84;100.00;97214.75;5013370;28;20206;-62
2021/06/06 09:54:05;;;;;;;15.87;9.20;;;;;;;14.84;100.00;97209.47;5019091;28;20227;-62
2021/06/06 09:56:30;;;;;;;11.50;8.03;;;;;;;14.98;100.00;97205.47;5033415;28;20186;-62
2021/06/06 09:59:21;;;;;;;14.93;8.73;;;;;;;14.91;100.00;97200.34;5016811;28;20186;-62
2021/06/06 10:02:02;;;;;;;14.43;9.20;;;;;;;15.07;100.00;97211.09;5015780;28;21020;-62
2021/06/06 10:04:40;;;;;;;13.70;8.53;;;;;;;15.02;100.00;97206.56;5034216;28;20190;-62
2021/06/06 10:07:16;;;;;;;13.00;9.17;;;;;;;14.98;100.00;97223.94;5035010;28;20200;-62
2021/06/06 10:09:50;;;;;;;15.97;10.57;;;;;;;15.07;100.00;97209.25;5033372;28;20178;-62
2021/06/06 10:12:35;;;;;;;19.97;11.03;;;;;;;15.16;100.00;97206.97;5026664;28;20241;-61
2021/06/06 10:15:06;;;;;;;17.50;12.07;;;;;;;15.20;100.00;97210.75;5034638;28;20212;-61
2021/06/06 10:17:55;;;;;;;20.87;12.63;;;;;;;15.26;100.00;97215.06;5010290;28;20294;-61
2021/06/06 10:20:26;;;;;;;21.70;12.13;;;;;;;15.14;100.00;97214.38;5035061;28;20262;-61
2021/06/06 10:23:05;;;;;;;18.77;12.67;;;;;;;15.22;100.00;97232.41;5034410;28;20194;-61
2021/06/06 10:25:58;;;;;;;20.47;12.60;;;;;;;15.18;100.00;97233.97;5024251;28;20167;-61
2021/06/06 10:28:40;;;;;;;19.07;13.43;;;;;;;15.09;100.00;97222.22;5034719;28;20604;-62
2021/06/06 10:31:26;;;;;;;19.40;13.00;;;;;;;15.15;100.00;97226.53;5034480;28;20345;-61
2021/06/06 10:34:03;;;;;;;20.07;13.37;;;;;;;15.09;100.00;97227.50;5029142;28;20279;-61
2021/06/06 10:36:33;;;;;;;22.30;13.63;;;;;;;15.04;100.00;97241.44;5033460;28;20534;-62
2021/06/06 10:38:59;;;;;;;22.17;13.93;;;;;;;15.04;100.00;97228.25;5034097;28;20190;-61
2021/06/06 10:41:34;;;;;;;30.40;17.33;;;;;;;15.13;100.00;97239.97;5033767;28;20652;-62
2021/06/06 10:44:18;;;;;;;32.57;17.17;;;;;;;15.10;100.00;97239.69;5021268;28;20178;-62
2021/06/06 10:46:51;;;;;;;28.60;15.93;;;;;;;15.19;100.00;97230.28;5033276;28;20197;-61
2021/06/06 10:49:58;;;;;;;28.23;15.73;;;;;;;15.08;100.00;97236.47;5013113;28;20201;-61
2021/06/06 10:52:32;;;;;;;25.47;14.57;;;;;;;15.16;100.00;97225.47;5011363;28;20234;-62
2021/06/06 10:55:13;;;;;;;27.87;15.17;;;;;;;15.20;100.00;97224.75;5032838;28;20261;-62
2021/06/06 10:57:40;;;;;;;27.63;14.90;;;;;;;15.42;100.00;97224.75;5032716;28;20202;-62
2021/06/06 11:00:10;;;;;;;26.03;15.33;;;;;;;15.34;100.00;97219.91;5033819;28;20218;-61
2021/06/06 11:02:53;;;;;;;22.67;14.73;;;;;;;15.50;100.00;97221.66;5032703;28;20195;-62
2021/06/06 11:05:44;;;;;;;24.93;14.80;;;;;;;15.73;100.00;97221.44;5032879;28;20212;-61
2021/06/06 11:08:28;;;;;;;22.17;15.50;;;;;;;15.74;100.00;97216.97;5034298;28;20186;-62
2021/06/06 11:11:22;;;;;;;24.23;15.53;;;;;;;15.64;100.00;97225.56;5033329;28;20203;-62
2021/06/06 11:13:51;;;;;;;24.30;14.68;;;;;;;15.70;100.00;97213.22;5032317;28;20794;-62
2021/06/06 11:16:16;;;;;;;24.83;16.20;;;;;;;15.55;100.00;97218.34;5032730;28;20186;-62
2021/06/06 11:19:08;;;;;;;30.97;17.83;;;;;;;15.43;100.00;97207.88;5032485;28;20182;-62
2021/06/06 11:21:44;;;;;;;28.23;17.20;;;;;;;15.42;100.00;97208.13;5032281;28;20265;-62
2021/06/06 11:24:30;;;;;;;28.37;17.60;;;;;;;15.44;100.00;97204.16;5033021;28;20183;-62
2021/06/06 11:27:05;;;;;;;29.80;17.20;;;;;;;15.31;100.00;97202.72;5019796;28;20222;-62
2021/06/06 11:29:51;;;;;;;30.47;17.30;;;;;;;15.54;100.00;97208.81;5032189;28;20178;-62
2021/06/06 11:32:49;;;;;;;34.03;19.50;;;;;;;15.46;100.00;97212.66;5031644;28;20617;-61
2021/06/06 11:35:23;;;;;;;33.07;18.37;;;;;;;15.52;100.00;97203.78;5025693;28;20201;-62
2021/06/06 11:38:18;;;;;;;27.27;17.70;;;;;;;15.55;100.00;97205.91;5032086;28;20327;-62
2021/06/06 11:40:49;;;;;;;29.80;18.63;;;;;;;15.31;100.00;97201.91;5027845;28;20198;-61